Time;durP1;ratioP1;P1;durP2;ratioP2;P2;SDS_P1;SDS_P2;PMS_P1;PMS_P2;Temp;Humidity;BMP_temperature;BMP_pressure;BME280_temperature;BME280_humidity;BME280_pressure;Samples;Min_cycle;Max_cycle;Signal;HPM_P1;HPM_P2
2022/09/12 04:00:16;;;;;;;19.00;14.80;;;12.10;96.30;;;;;;6015411;23;20365;-83
2022/09/12 04:02:41;;;;;;;19.57;14.53;;;12.10;96.30;;;;;;4972386;28;20438;-78
2022/09/12 04:05:07;;;;;;;20.07;11.90;;;12.10;96.30;;;;;;4975213;28;20296;-78
2022/09/12 04:07:33;;;;;;;15.60;9.40;;;12.00;96.30;;;;;;4975410;28;20178;-78
2022/09/12 04:09:58;;;;;;;15.00;9.97;;;11.90;96.30;;;;;;4959135;28;20698;-78
2022/09/12 04:12:23;;;;;;;20.87;9.80;;;11.70;96.30;;;;;;4955898;29;20199;-79
2022/09/12 04:14:49;;;;;;;14.27;11.63;;;11.70;96.30;;;;;;4938286;29;20231;-78
2022/09/12 04:17:14;;;;;;;18.13;12.90;;;11.70;96.30;;;;;;4936993;29;20176;-79
2022/09/12 04:19:40;;;;;;;14.43;11.87;;;11.70;96.30;;;;;;4939979;28;20841;-78
2022/09/12 04:22:05;;;;;;;24.73;16.57;;;11.80;96.30;;;;;;4947871;28;20207;-78
2022/09/12 04:24:31;;;;;;;23.47;17.20;;;11.80;96.30;;;;;;4955360;29;20631;-80
2022/09/12 04:26:57;;;;;;;23.13;17.27;;;11.90;96.30;;;;;;4955897;28;20207;-78
2022/09/12 04:29:22;;;;;;;26.07;18.80;;;11.90;96.30;;;;;;4938817;28;20594;-79
2022/09/12 04:31:48;;;;;;;39.00;22.47;;;12.00;96.30;;;;;;4936691;29;20197;-79
2022/09/12 04:34:14;;;;;;;26.17;19.60;;;12.00;96.30;;;;;;4936800;29;20176;-79
2022/09/12 04:36:40;;;;;;;25.07;17.93;;;12.00;96.30;;;;;;4948914;29;20606;-80
2022/09/12 04:39:06;;;;;;;23.00;17.77;;;12.00;96.30;;;;;;4955323;28;20427;-80
2022/09/12 04:41:34;;;;;;;26.90;18.90;;;12.00;96.30;;;;;;4954897;28;20739;-81
2022/09/12 04:44:04;;;;;;;26.77;16.97;;;12.00;96.30;;;;;;4956050;28;20423;-81
2022/09/12 04:46:32;;;;;;;22.80;16.67;;;12.00;96.30;;;;;;4930865;29;20494;-79
2022/09/12 04:48:57;;;;;;;21.20;15.60;;;11.90;96.30;;;;;;4936493;29;20976;-79
2022/09/12 04:51:29;;;;;;;17.00;13.40;;;11.90;96.30;;;;;;4942149;29;20438;-79
2022/09/12 04:53:57;;;;;;;21.17;14.73;;;11.80;96.30;;;;;;4948102;28;20187;-81
2022/09/12 04:56:23;;;;;;;20.40;14.63;;;11.70;96.30;;;;;;4954867;28;20878;-80
2022/09/12 04:58:49;;;;;;;20.13;15.80;;;11.70;96.30;;;;;;4953947;29;20418;-81
2022/09/12 05:01:17;;;;;;;31.60;19.37;;;11.70;96.30;;;;;;4950497;28;20554;-81
2022/09/12 05:03:43;;;;;;;14.73;12.03;;;11.70;96.30;;;;;;4933447;29;20562;-81
2022/09/12 05:06:14;;;;;;;15.60;12.90;;;11.60;96.30;;;;;;4935278;29;20454;-79
2022/09/12 05:08:40;;;;;;;23.33;15.67;;;11.60;96.30;;;;;;4939410;29;20929;-80
2022/09/12 05:11:14;;;;;;;23.50;14.60;;;11.60;96.30;;;;;;4935910;29;20543;-80
2022/09/12 05:13:40;;;;;;;27.93;18.47;;;11.60;96.30;;;;;;4934501;29;20206;-80
2022/09/12 05:16:08;;;;;;;22.13;13.10;;;11.70;96.30;;;;;;4935990;29;20915;-79
2022/09/12 05:18:35;;;;;;;19.23;12.97;;;11.70;96.30;;;;;;4936779;29;20663;-79
2022/09/12 05:21:03;;;;;;;18.67;13.77;;;11.70;96.30;;;;;;4934686;29;20435;-79
2022/09/12 05:23:29;;;;;;;18.30;13.00;;;11.80;96.30;;;;;;4936071;29;20424;-79
2022/09/12 05:25:57;;;;;;;19.03;14.00;;;11.80;96.30;;;;;;4934637;29;20463;-79
2022/09/12 05:28:27;;;;;;;20.30;16.57;;;11.90;96.30;;;;;;4935698;29;20411;-79
2022/09/12 05:31:20;;;;;;;26.33;19.50;;;12.00;96.30;;;;;;4936117;29;20927;-78
2022/09/12 05:33:48;;;;;;;27.37;20.60;;;12.50;96.30;;;;;;4934351;29;20431;-79
2022/09/12 05:36:26;;;;;;;34.40;21.27;;;12.70;96.30;;;;;;4934742;29;20423;-79
2022/09/12 05:38:52;;;;;;;25.50;17.27;;;12.80;96.30;;;;;;4936535;29;20411;-81
2022/09/12 05:41:28;;;;;;;39.10;19.73;;;12.90;96.30;;;;;;4945319;28;20462;-79
2022/09/12 05:43:55;;;;;;;20.73;14.67;;;12.90;96.30;;;;;;4954304;29;20767;-79
2022/09/12 05:46:26;;;;;;;22.37;14.97;;;12.80;96.30;;;;;;4954261;29;20549;-79
2022/09/12 05:48:53;;;;;;;23.30;17.27;;;12.80;96.30;;;;;;4955680;28;20855;-79
2022/09/12 05:51:21;;;;;;;24.03;16.90;;;12.70;96.30;;;;;;4954120;28;20465;-78
2022/09/12 05:53:51;;;;;;;30.37;19.40;;;12.70;96.30;;;;;;4954689;28;20418;-79
2022/09/12 05:56:19;;;;;;;28.60;21.20;;;12.80;96.30;;;;;;4954602;28;20418;-79
2022/09/12 05:58:47;;;;;;;28.73;20.30;;;12.80;96.30;;;;;;4954217;29;20422;-80
2022/09/12 06:01:15;;;;;;;26.60;20.50;;;12.90;96.30;;;;;;4952983;28;20992;-80
2022/09/12 06:03:43;;;;;;;37.87;19.37;;;12.90;96.30;;;;;;4954290;28;20421;-80
2022/09/12 06:06:12;;;;;;;32.03;20.00;;;13.00;96.30;;;;;;4954036;28;20513;-79
2022/09/12 06:08:39;;;;;;;25.10;15.80;;;13.10;96.30;;;;;;4952773;28;20918;-79
2022/09/12 06:11:06;;;;;;;30.47;18.23;;;13.20;96.30;;;;;;4952796;28;20796;-79
2022/09/12 06:13:33;;;;;;;26.00;18.50;;;13.20;96.30;;;;;;4954051;28;20577;-80
2022/09/12 06:16:07;;;;;;;31.27;18.87;;;13.20;96.30;;;;;;4953993;28;20419;-79
2022/09/12 06:18:32;;;;;;;24.43;17.70;;;13.20;96.30;;;;;;4953847;28;20493;-79
2022/09/12 06:21:05;;;;;;;26.37;19.37;;;13.30;96.30;;;;;;4953879;28;20481;-79
2022/09/12 06:23:31;;;;;;;27.63;19.00;;;13.30;96.30;;;;;;4952800;29;20646;-79
2022/09/12 06:25:56;;;;;;;21.50;17.23;;;13.30;96.30;;;;;;4952625;28;20458;-78
2022/09/12 06:28:22;;;;;;;31.87;18.40;;;13.30;96.30;;;;;;4953815;28;20898;-78
2022/09/12 06:30:47;;;;;;;27.17;19.90;;;13.30;96.30;;;;;;4953845;28;20201;-78
2022/09/12 06:33:14;;;;;;;30.70;19.47;;;13.40;96.30;;;;;;4953746;28;20171;-78
2022/09/12 06:35:39;;;;;;;27.40;19.60;;;13.40;96.30;;;;;;4953705;28;20262;-78
2022/09/12 06:38:05;;;;;;;26.77;19.30;;;13.40;96.30;;;;;;4953553;28;20506;-78
2022/09/12 06:40:32;;;;;;;25.00;17.80;;;13.40;96.30;;;;;;4952415;29;20237;-78
2022/09/12 06:42:57;;;;;;;28.10;19.00;;;13.50;96.30;;;;;;4945870;28;20597;-78
2022/09/12 06:45:24;;;;;;;28.50;18.80;;;13.50;96.30;;;;;;4934504;29;20545;-78
2022/09/12 06:47:50;;;;;;;26.33;18.10;;;13.40;96.30;;;;;;4934468;29;20186;-79
2022/09/12 06:50:16;;;;;;;22.70;17.00;;;13.50;96.30;;;;;;4934584;29;21004;-78
2022/09/12 06:52:43;;;;;;;23.93;16.70;;;13.60;96.30;;;;;;4934718;29;20255;-79
2022/09/12 06:55:09;;;;;;;31.33;17.90;;;13.60;96.30;;;;;;4933344;29;20511;-78
2022/09/12 06:57:37;;;;;;;24.70;17.60;;;14.00;96.30;;;;;;4933192;29;21006;-78
2022/09/12 07:00:04;;;;;;;30.20;19.67;;;14.50;96.30;;;;;;4938713;29;20766;-79
2022/09/12 07:02:30;;;;;;;26.67;18.40;;;15.10;96.30;;;;;;4952288;28;20465;-78
2022/09/12 07:04:55;;;;;;;23.77;16.17;;;15.80;96.30;;;;;;4953540;28;20418;-79
2022/09/12 07:07:21;;;;;;;23.30;16.87;;;16.60;96.30;;;;;;4953651;28;20175;-79
2022/09/12 07:09:48;;;;;;;20.60;15.23;;;17.60;96.30;;;;;;4953505;28;20201;-79
2022/09/12 07:12:13;;;;;;;19.67;15.50;;;17.90;96.30;;;;;;4953513;28;20194;-80
2022/09/12 07:14:39;;;;;;;20.33;15.57;;;17.90;96.30;;;;;;4953632;28;20411;-79
2022/09/12 07:17:04;;;;;;;21.30;15.23;;;18.80;96.30;;;;;;4953683;28;20267;-80
2022/09/12 07:19:30;;;;;;;22.23;15.53;;;19.90;96.30;;;;;;4944835;28;20267;-79
2022/09/12 07:21:55;;;;;;;23.13;16.97;;;20.10;96.30;;;;;;4938143;29;20203;-80
2022/09/12 07:24:21;;;;;;;18.70;14.97;;;20.40;96.30;;;;;;4938123;29;20666;-79
2022/09/12 07:26:46;;;;;;;19.00;14.40;;;19.70;96.30;;;;;;4937811;29;20205;-79
2022/09/12 07:29:15;;;;;;;19.20;16.60;;;19.20;96.30;;;;;;4936347;28;20187;-80
2022/09/12 07:31:40;;;;;;;19.07;16.43;;;18.50;96.30;;;;;;4937629;29;20201;-79
2022/09/12 07:34:06;;;;;;;18.20;15.30;;;18.40;96.30;;;;;;4937735;29;20506;-80
2022/09/12 07:36:32;;;;;;;18.10;14.47;;;18.60;96.30;;;;;;4936448;29;20223;-79
2022/09/12 07:38:57;;;;;;;19.70;14.90;;;19.10;96.30;;;;;;4937285;29;20242;-79
2022/09/12 07:41:26;;;;;;;23.20;15.90;;;18.80;96.30;;;;;;4947824;29;20211;-79
2022/09/12 07:43:59;;;;;;;15.47;13.73;;;19.20;96.30;;;;;;4956685;28;20270;-79
2022/09/12 07:46:28;;;;;;;18.50;15.17;;;20.80;96.30;;;;;;4956970;28;20796;-80
2022/09/12 07:48:55;;;;;;;17.53;14.00;;;22.00;96.30;;;;;;4957238;28;20477;-80
2022/09/12 07:51:23;;;;;;;15.37;13.80;;;22.00;96.30;;;;;;4957268;28;20438;-81
2022/09/12 07:53:49;;;;;;;14.63;11.90;;;21.00;96.30;;;;;;4956913;28;20417;-79
2022/09/12 07:56:15;;;;;;;13.57;12.07;;;20.10;96.30;;;;;;4956727;28;20437;-79
2022/09/12 07:58:42;;;;;;;15.70;14.07;;;19.80;96.30;;;;;;4956317;28;20425;-79
2022/09/12 08:01:11;;;;;;;17.27;13.40;;;19.50;96.30;;;;;;4956103;28;20505;-79
2022/09/12 08:03:41;;;;;;;19.60;14.33;;;19.10;96.30;;;;;;4956317;28;20517;-79
2022/09/12 08:06:09;;;;;;;16.87;10.90;;;19.90;96.30;;;;;;4956736;28;20470;-79
2022/09/12 08:08:36;;;;;;;12.00;10.67;;;21.40;96.30;;;;;;4955188;28;20836;-81
2022/09/12 08:11:04;;;;;;;10.27;9.20;;;22.10;96.30;;;;;;4937216;29;20459;-81
2022/09/12 08:13:31;;;;;;;9.30;8.33;;;22.80;96.30;;;;;;4936388;29;20451;-79
2022/09/12 08:15:58;;;;;;;11.47;9.70;;;22.60;96.30;;;;;;4938373;29;20504;-79
2022/09/12 08:18:25;;;;;;;15.47;11.10;;;22.20;96.30;;;;;;4936993;29;20503;-79
2022/09/12 08:20:58;;;;;;;12.13;10.00;;;21.30;96.30;;;;;;4938444;29;20439;-79
2022/09/12 08:23:24;;;;;;;11.27;9.10;;;20.90;96.30;;;;;;4938508;29;20411;-80
2022/09/12 08:25:53;;;;;;;12.57;9.27;;;20.50;96.30;;;;;;4938644;29;20910;-80
2022/09/12 08:28:19;;;;;;;13.23;9.73;;;20.40;96.30;;;;;;4938659;29;20226;-80
2022/09/12 08:30:44;;;;;;;14.47;9.63;;;20.10;96.30;;;;;;4941061;29;20435;-80
2022/09/12 08:33:10;;;;;;;10.77;8.50;;;19.60;96.30;;;;;;4939742;28;20188;-81
2022/09/12 08:35:35;;;;;;;10.03;9.03;;;19.40;96.30;;;;;;4929838;29;20264;-80
2022/09/12 08:38:01;;;;;;;12.10;9.67;;;19.20;96.30;;;;;;4918437;29;20176;-81
2022/09/12 08:40:26;;;;;;;11.90;10.70;;;19.30;96.30;;;;;;4935080;29;20181;-79
2022/09/12 08:43:29;;;;;;;12.50;10.40;;;19.40;96.30;;;;;;4938392;29;20656;-80
2022/09/12 08:46:06;;;;;;;12.77;10.60;;;19.30;96.30;;;;;;4937090;29;20238;-79
2022/09/12 08:48:32;;;;;;;12.23;9.17;;;19.50;96.30;;;;;;4937087;29;20930;-79
2022/09/12 08:50:59;;;;;;;13.13;9.77;;;19.40;96.30;;;;;;4936233;29;20431;-79
2022/09/12 08:53:27;;;;;;;13.67;10.90;;;19.20;96.30;;;;;;4935088;29;20184;-79
2022/09/12 08:55:58;;;;;;;12.63;9.23;;;19.10;96.30;;;;;;4941954;29;21021;-79
2022/09/12 08:58:26;;;;;;;12.37;10.13;;;18.50;96.30;;;;;;4949065;29;20434;-79
2022/09/12 09:01:03;;;;;;;16.23;10.57;;;18.30;96.30;;;;;;4935832;29;20463;-79
2022/09/12 09:03:38;;;;;;;7.23;6.03;;;18.20;96.30;;;;;;4936063;28;20414;-81
2022/09/12 09:06:20;;;;;;;6.67;6.00;;;18.40;96.30;;;;;;4935843;29;20462;-79
2022/09/12 09:08:57;;;;;;;4.03;3.63;;;18.90;96.30;;;;;;4935684;29;20411;-78
2022/09/12 09:11:57;;;;;;;2.87;2.67;;;19.30;96.30;;;;;;4935812;29;20431;-79
2022/09/12 09:15:00;;;;;;;4.10;3.70;;;19.30;96.30;;;;;;4935834;29;20410;-79
2022/09/12 09:17:41;;;;;;;10.10;5.50;;;19.40;96.30;;;;;;4934398;28;20427;-78
2022/09/12 09:20:30;;;;;;;6.63;4.73;;;19.60;96.30;;;;;;4935417;28;20442;-79
2022/09/12 09:23:20;;;;;;;5.57;4.77;;;19.80;96.30;;;;;;4935245;29;20478;-79
2022/09/12 09:26:06;;;;;;;6.90;4.33;;;19.80;96.30;;;;;;4925434;29;20507;-79
2022/09/12 09:28:45;;;;;;;7.10;4.70;;;19.40;96.30;;;;;;4935442;29;20458;-80
2022/09/12 09:31:15;;;;;;;7.17;5.20;;;19.00;96.30;;;;;;4935309;29;20435;-79
2022/09/12 09:33:42;;;;;;;5.60;4.47;;;18.80;96.30;;;;;;4935170;29;20423;-78
2022/09/12 09:36:40;;;;;;;6.27;4.47;;;18.60;96.30;;;;;;4935352;29;20486;-79
2022/09/12 09:39:15;;;;;;;4.90;4.20;;;18.80;96.30;;;;;;4926509;29;20423;-79
2022/09/12 09:42:09;;;;;;;4.13;3.70;;;19.20;96.30;;;;;;4947502;28;20533;-79
2022/09/12 09:44:35;;;;;;;8.30;3.53;;;20.20;96.30;;;;;;4954312;28;20447;-79
2022/09/12 09:47:01;;;;;;;5.43;3.27;;;20.50;96.30;;;;;;4952871;29;20502;-79
2022/09/12 09:49:30;;;;;;;9.77;3.10;;;20.00;96.30;;;;;;4954087;28;20207;-80
2022/09/12 09:51:57;;;;;;;4.30;3.30;;;21.00;96.30;;;;;;4953222;29;20221;-79
2022/09/12 09:54:28;;;;;;;4.10;3.03;;;21.90;96.30;;;;;;4954305;28;20930;-79
2022/09/12 09:56:55;;;;;;;3.23;2.90;;;22.20;96.30;;;;;;4954083;28;20410;-80
2022/09/12 09:59:32;;;;;;;3.60;3.30;;;22.40;96.30;;;;;;4953989;28;20422;-79
2022/09/12 10:02:13;;;;;;;3.90;3.27;;;23.50;96.30;;;;;;4954054;28;20462;-79
2022/09/12 10:04:40;;;;;;;3.60;2.57;;;23.60;96.30;;;;;;4954020;28;20415;-80
2022/09/12 10:07:17;;;;;;;6.50;3.30;;;23.00;96.30;;;;;;4953618;28;20840;-79
2022/09/12 10:10:13;;;;;;;4.80;2.43;;;23.50;96.30;;;;;;4944149;28;20407;-79
2022/09/12 10:12:38;;;;;;;4.43;2.90;;;23.20;96.30;;;;;;4934580;29;20415;-79
2022/09/12 10:15:16;;;;;;;3.23;2.93;;;22.40;96.30;;;;;;4932787;29;20414;-79
2022/09/12 10:17:45;;;;;;;2.80;2.60;;;21.20;96.30;;;;;;4915617;29;20156;-77
2022/09/12 10:20:38;;;;;;;2.90;2.53;;;20.80;96.30;;;;;;4915322;29;20424;-77
2022/09/12 10:23:29;;;;;;;2.33;2.13;;;20.10;96.30;;;;;;4915833;29;20412;-77
2022/09/12 10:25:59;;;;;;;2.63;2.43;;;19.80;96.30;;;;;;4915627;29;20489;-78
2022/09/12 10:28:36;;;;;;;2.43;2.23;;;19.80;96.30;;;;;;4914180;29;20423;-78
2022/09/12 10:31:02;;;;;;;2.50;2.10;;;19.80;96.30;;;;;;4915622;29;20454;-76
2022/09/12 10:33:28;;;;;;;1.97;1.40;;;19.90;96.30;;;;;;4914158;29;20421;-76
2022/09/12 10:35:55;;;;;;;2.80;1.50;;;19.90;96.30;;;;;;4927937;29;20919;-76
2022/09/12 10:38:25;;;;;;;1.93;1.83;;;19.90;96.30;;;;;;4934423;29;20426;-76
2022/09/12 10:41:06;;;;;;;2.20;1.70;;;20.30;96.30;;;;;;4934165;29;20436;-78
2022/09/12 10:43:40;;;;;;;2.53;2.10;;;21.60;96.30;;;;;;4934686;29;20498;-76
2022/09/12 10:46:14;;;;;;;3.73;2.20;;;22.60;96.30;;;;;;4935112;29;20954;-77
2022/09/12 10:48:41;;;;;;;2.90;2.07;;;23.20;95.50;;;;;;4934816;29;20415;-77
2022/09/12 10:53:45;;;;;;;2.00;1.60;;;23.80;96.30;;;;;;5165791;23;20494;-77
2022/09/12 10:56:10;;;;;;;2.70;1.80;;;23.50;92.80;;;;;;4974856;28;20418;-77
2022/09/12 10:58:58;;;;;;;2.07;1.63;;;23.10;91.10;;;;;;4976529;28;20460;-76
2022/09/12 11:01:55;;;;;;;3.50;2.17;;;22.50;96.30;;;;;;4976549;28;20280;-76
2022/09/12 11:04:58;;;;;;;2.20;2.00;;;22.90;96.30;;;;;;4940649;28;20448;-76
2022/09/12 11:07:38;;;;;;;3.37;2.60;;;23.70;96.30;;;;;;4938039;29;20427;-77
2022/09/12 11:10:29;;;;;;;2.60;2.40;;;22.30;96.30;;;;;;4962580;28;20413;-78
2022/09/12 11:13:28;;;;;;;2.30;2.10;;;23.00;93.60;;;;;;4976449;28;20501;-76
2022/09/12 11:16:05;;;;;;;3.00;2.10;;;23.50;96.30;;;;;;4975065;28;20417;-77
2022/09/12 11:19:02;;;;;;;2.80;2.47;;;24.10;96.30;;;;;;4975981;28;20420;-77
2022/09/12 11:21:51;;;;;;;2.20;2.00;;;24.00;92.30;;;;;;4976094;28;20441;-77
2022/09/12 11:24:54;;;;;;;2.80;2.17;;;23.50;96.30;;;;;;4955362;28;20440;-76
2022/09/12 11:28:17;;;;;;;7.07;2.20;;;22.60;95.90;;;;;;4973747;28;20441;-77
2022/09/12 11:31:06;;;;;;;1.80;1.70;;;22.00;96.30;;;;;;4935017;29;20531;-76
2022/09/12 11:33:41;;;;;;;2.93;1.80;;;21.20;95.50;;;;;;4935263;29;20498;-77
2022/09/12 11:36:18;;;;;;;1.87;1.67;;;21.10;96.30;;;;;;4963081;28;21014;-77
2022/09/12 11:38:55;;;;;;;1.83;1.73;;;21.10;96.30;;;;;;4974541;28;20452;-77
2022/09/12 11:41:30;;;;;;;1.97;1.87;;;21.30;96.30;;;;;;4965427;28;20453;-77
2022/09/12 11:44:09;;;;;;;2.70;2.23;;;21.90;95.00;;;;;;4938819;28;20771;-77
2022/09/12 11:46:41;;;;;;;3.27;1.90;;;22.10;94.50;;;;;;4937387;29;20455;-77
2022/09/12 11:49:33;;;;;;;4.13;2.40;;;21.80;91.90;;;;;;4936953;29;20430;-77
2022/09/12 11:52:23;;;;;;;2.00;1.80;;;21.50;93.10;;;;;;4929871;29;20447;-77
2022/09/12 11:55:00;;;;;;;2.10;1.80;;;22.10;93.00;;;;;;4937293;29;20426;-77
2022/09/12 11:57:52;;;;;;;1.80;1.70;;;22.40;91.20;;;;;;4937216;29;20434;-77
2022/09/12 12:00:19;;;;;;;2.37;1.83;;;22.20;94.40;;;;;;4937315;29;21014;-77
2022/09/12 12:02:56;;;;;;;2.97;1.97;;;22.70;96.30;;;;;;4937139;29;20404;-77
2022/09/12 12:05:30;;;;;;;2.40;2.00;;;23.10;94.90;;;;;;4936297;29;20460;-77
2022/09/12 12:08:03;;;;;;;1.97;1.73;;;22.70;89.40;;;;;;4936917;29;20407;-77
2022/09/12 12:10:57;;;;;;;3.40;2.10;;;22.60;93.10;;;;;;4966763;28;20426;-77
2022/09/12 12:13:38;;;;;;;3.70;1.80;;;22.00;95.40;;;;;;4974130;28;20430;-77
2022/09/12 12:16:17;;;;;;;2.00;1.43;;;21.40;96.30;;;;;;4975307;28;20416;-77
2022/09/12 12:18:43;;;;;;;4.20;1.33;;;21.10;96.30;;;;;;4974955;28;20412;-77
2022/09/12 12:21:31;;;;;;;2.17;1.97;;;20.70;96.30;;;;;;4975053;28;20434;-78
2022/09/12 12:24:08;;;;;;;2.20;2.00;;;20.40;96.30;;;;;;4975177;28;20838;-78
2022/09/12 12:26:40;;;;;;;2.87;2.00;;;20.80;96.30;;;;;;4973913;28;20465;-77
2022/09/12 12:29:40;;;;;;;1.93;1.83;;;20.90;94.50;;;;;;4974885;28;20447;-77
2022/09/12 12:32:06;;;;;;;3.00;1.80;;;20.80;95.30;;;;;;4974924;28;20893;-77
2022/09/12 12:34:36;;;;;;;2.60;1.57;;;21.00;96.30;;;;;;4975004;28;20421;-76
2022/09/12 12:37:20;;;;;;;2.00;1.53;;;20.90;96.30;;;;;;4975025;28;20413;-77
2022/09/12 12:39:52;;;;;;;1.40;1.30;;;20.70;96.30;;;;;;4974711;28;20418;-77
2022/09/12 12:42:33;;;;;;;3.30;2.10;;;20.50;96.30;;;;;;4956962;28;20942;-77
2022/09/12 12:45:28;;;;;;;4.20;1.70;;;20.20;96.30;;;;;;4955432;28;20414;-76
2022/09/12 12:48:08;;;;;;;1.70;1.50;;;19.90;96.30;;;;;;4955193;29;20927;-78
2022/09/12 12:50:34;;;;;;;2.20;1.57;;;19.80;96.30;;;;;;4955205;28;20441;-77
2022/09/12 12:53:05;;;;;;;3.80;1.70;;;19.80;96.30;;;;;;4946686;28;20435;-78
2022/09/12 12:55:37;;;;;;;1.97;1.50;;;19.80;96.30;;;;;;4936068;28;20179;-77
2022/09/12 12:58:05;;;;;;;2.03;1.70;;;20.30;96.30;;;;;;4950649;28;20446;-77
2022/09/12 13:00:36;;;;;;;2.37;1.90;;;21.00;96.30;;;;;;4944939;28;20522;-77
2022/09/12 13:03:05;;;;;;;6.10;2.03;;;21.70;96.30;;;;;;4946465;28;20509;-77
2022/09/12 13:06:01;;;;;;;3.60;1.90;;;21.80;93.60;;;;;;4943383;28;20459;-76
2022/09/12 13:08:31;;;;;;;2.00;1.80;;;22.00;92.90;;;;;;4945505;29;20434;-76
2022/09/12 13:11:11;;;;;;;1.90;1.80;;;22.40;93.20;;;;;;4945511;29;20442;-77
2022/09/12 13:13:43;;;;;;;2.10;1.60;;;22.00;92.20;;;;;;4946552;28;20775;-77
2022/09/12 13:16:09;;;;;;;2.30;1.77;;;21.90;93.40;;;;;;4946562;28;20412;-77
2022/09/12 13:18:47;;;;;;;1.50;1.40;;;22.20;94.00;;;;;;4947765;28;20445;-76
2022/09/12 13:21:15;;;;;;;1.80;1.40;;;22.30;93.20;;;;;;4949281;29;20435;-77
2022/09/12 13:23:41;;;;;;;4.30;1.60;;;22.10;92.20;;;;;;4947060;28;20836;-77
2022/09/12 13:26:34;;;;;;;1.53;1.43;;;22.40;93.50;;;;;;4945341;29;20545;-77
2022/09/12 13:29:18;;;;;;;1.70;1.53;;;22.20;92.00;;;;;;4948866;29;20194;-77
2022/09/12 13:32:00;;;;;;;1.47;1.30;;;22.20;93.20;;;;;;4944343;28;20489;-77
2022/09/12 13:34:27;;;;;;;2.27;1.70;;;22.20;92.20;;;;;;4956003;28;20513;-76
2022/09/12 13:37:23;;;;;;;1.70;1.60;;;21.60;92.60;;;;;;4962384;28;20414;-76
2022/09/12 13:40:00;;;;;;;2.00;1.80;;;21.70;91.60;;;;;;4949511;28;20426;-76
2022/09/12 13:42:38;;;;;;;2.53;1.60;;;21.50;91.60;;;;;;4959729;28;20477;-76
2022/09/12 13:45:20;;;;;;;2.27;2.00;;;21.70;92.50;;;;;;4956982;28;20423;-76
2022/09/12 13:47:50;;;;;;;1.87;1.77;;;21.70;92.20;;;;;;4966207;28;20780;-75
2022/09/12 13:50:22;;;;;;;3.23;1.60;;;21.80;94.20;;;;;;4955351;28;20410;-76
2022/09/12 13:52:52;;;;;;;1.60;1.50;;;21.70;93.20;;;;;;4967575;28;20433;-76
2022/09/12 13:55:30;;;;;;;1.70;1.60;;;21.40;93.30;;;;;;4957342;28;20513;-77
2022/09/12 13:58:02;;;;;;;2.00;1.50;;;21.70;95.70;;;;;;4964863;28;20426;-76
2022/09/12 14:00:31;;;;;;;1.83;1.53;;;21.80;95.90;;;;;;4954546;28;20414;-77
2022/09/12 14:05:44;;;;;;;1.77;1.67;;;22.00;96.30;;;;;;4960181;28;20939;-76
2022/09/12 14:08:13;;;;;;;1.77;1.67;;;22.00;94.20;;;;;;4955582;28;20446;-75
2022/09/12 14:10:43;;;;;;;2.20;1.50;;;21.90;96.30;;;;;;4943508;28;20447;-76
2022/09/12 14:13:33;;;;;;;1.43;1.30;;;21.20;93.10;;;;;;4953453;28;20398;-77
2022/09/12 14:15:58;;;;;;;1.77;1.57;;;21.30;94.50;;;;;;4964429;28;20933;-75
2022/09/12 14:18:35;;;;;;;2.50;1.70;;;21.60;96.30;;;;;;4958934;28;20564;-75
2022/09/12 14:21:10;;;;;;;2.53;1.77;;;21.30;92.30;;;;;;4969069;28;20264;-76
2022/09/12 14:23:40;;;;;;;2.17;1.67;;;21.40;94.00;;;;;;4959275;28;21018;-76
2022/09/12 14:26:11;;;;;;;1.80;1.70;;;21.30;95.60;;;;;;4961251;28;20533;-75
2022/09/12 14:28:41;;;;;;;3.83;1.87;;;21.10;96.30;;;;;;4971926;28;20414;-75
2022/09/12 14:31:22;;;;;;;3.10;2.00;;;21.30;96.30;;;;;;4963570;28;20919;-75
2022/09/12 14:33:51;;;;;;;1.70;1.60;;;21.30;96.30;;;;;;4960481;28;20962;-75
2022/09/12 14:36:25;;;;;;;1.50;1.40;;;21.20;96.30;;;;;;4948069;28;20862;-75
2022/09/12 14:39:00;;;;;;;1.50;1.30;;;20.80;96.30;;;;;;4947719;28;20855;-76
2022/09/12 14:41:32;;;;;;;1.40;1.30;;;20.50;96.30;;;;;;4969959;28;20445;-76
2022/09/12 14:44:00;;;;;;;4.37;1.60;;;20.50;96.30;;;;;;4979486;28;20422;-76
2022/09/12 14:46:34;;;;;;;1.80;1.57;;;20.40;96.30;;;;;;4979499;28;20481;-75
2022/09/12 14:49:17;;;;;;;4.30;1.80;;;20.40;96.30;;;;;;4977827;28;20428;-76
2022/09/12 14:52:01;;;;;;;1.50;1.40;;;20.60;96.30;;;;;;4974360;28;20532;-75
2022/09/12 14:54:27;;;;;;;5.83;1.77;;;20.60;96.30;;;;;;4959992;28;20407;-75
2022/09/12 14:56:58;;;;;;;4.03;1.40;;;20.60;96.30;;;;;;4959634;28;20409;-74
2022/09/12 14:59:28;;;;;;;1.67;1.43;;;20.60;96.30;;;;;;4959537;28;20226;-74
2022/09/12 15:02:12;;;;;;;2.70;1.60;;;20.50;96.30;;;;;;4958497;28;20488;-74
2022/09/12 15:04:39;;;;;;;1.60;1.40;;;20.50;96.30;;;;;;4959975;28;20441;-74
2022/09/12 15:07:30;;;;;;;2.23;1.27;;;20.30;96.30;;;;;;4959696;28;20525;-74
2022/09/12 15:10:15;;;;;;;1.70;1.60;;;20.30;96.30;;;;;;4971150;28;20472;-74
2022/09/12 15:12:40;;;;;;;1.70;1.43;;;20.30;96.30;;;;;;4940911;28;20425;-74
2022/09/12 15:15:18;;;;;;;1.30;1.20;;;20.20;96.30;;;;;;4943158;29;20510;-74
2022/09/12 15:17:43;;;;;;;2.13;1.60;;;20.30;96.30;;;;;;4959355;28;20178;-74
2022/09/12 15:20:09;;;;;;;8.77;5.70;;;20.30;96.30;;;;;;4958327;29;20506;-74
2022/09/12 15:22:37;;;;;;;33.60;14.17;;;20.30;96.30;;;;;;4959460;28;20222;-74
2022/09/12 15:25:04;;;;;;;45.27;17.37;;;20.20;96.30;;;;;;4959374;28;20179;-74
2022/09/12 15:27:29;;;;;;;8.20;3.33;;;20.30;96.30;;;;;;4959536;28;20813;-74
2022/09/12 15:29:55;;;;;;;14.93;6.77;;;20.30;96.30;;;;;;4959595;28;20418;-75
2022/09/12 15:32:29;;;;;;;2.57;2.37;;;20.10;96.30;;;;;;4959557;28;20191;-74
2022/09/12 15:34:54;;;;;;;2.80;1.90;;;20.00;96.30;;;;;;4949842;28;20183;-74
2022/09/12 15:37:22;;;;;;;1.87;1.67;;;19.90;96.30;;;;;;4940520;29;20935;-74
2022/09/12 15:39:48;;;;;;;2.63;1.60;;;19.80;96.30;;;;;;4937523;29;20176;-74
2022/09/12 15:42:15;;;;;;;1.93;1.83;;;19.80;96.30;;;;;;4964689;28;20454;-74
2022/09/12 15:44:41;;;;;;;2.07;1.97;;;19.80;96.30;;;;;;4956428;28;20417;-74
2022/09/12 15:47:11;;;;;;;1.70;1.60;;;19.60;96.30;;;;;;4956397;28;20470;-74
2022/09/12 15:49:38;;;;;;;3.50;1.73;;;19.50;96.30;;;;;;4956371;28;20175;-74
2022/09/12 15:52:03;;;;;;;1.77;1.67;;;19.40;96.30;;;;;;4954841;28;20823;-74
2022/09/12 15:54:29;;;;;;;1.93;1.83;;;19.30;96.30;;;;;;4956542;28;20994;-74
2022/09/12 15:56:54;;;;;;;1.60;1.40;;;19.30;96.30;;;;;;4956132;28;20694;-74
2022/09/12 15:59:20;;;;;;;3.13;1.73;;;19.20;96.30;;;;;;4956136;28;20182;-74
2022/09/12 16:01:45;;;;;;;3.17;1.53;;;19.20;96.30;;;;;;4956115;28;20198;-74
2022/09/12 16:04:23;;;;;;;5.40;1.90;;;19.00;96.30;;;;;;4956281;28;20518;-74
2022/09/12 16:06:50;;;;;;;1.93;1.50;;;18.90;96.30;;;;;;4953480;28;20675;-74
2022/09/12 16:09:15;;;;;;;2.60;1.60;;;18.80;96.30;;;;;;4955768;28;20406;-74
2022/09/12 16:11:41;;;;;;;4.70;1.70;;;18.70;96.30;;;;;;4952658;28;20498;-74
2022/09/12 16:14:07;;;;;;;3.63;1.40;;;18.70;96.30;;;;;;4955796;28;20217;-73
2022/09/12 16:16:32;;;;;;;1.80;1.47;;;18.60;96.30;;;;;;4955622;28;20189;-73
2022/09/12 16:18:58;;;;;;;1.50;1.33;;;18.60;96.30;;;;;;4955615;28;20183;-73
2022/09/12 16:21:24;;;;;;;1.70;1.60;;;18.50;96.30;;;;;;4955562;28;20207;-73
2022/09/12 16:23:49;;;;;;;1.80;1.70;;;18.30;96.30;;;;;;4954895;28;20179;-74
2022/09/12 16:26:16;;;;;;;1.60;1.50;;;18.20;96.30;;;;;;4954708;28;20206;-75
2022/09/12 16:28:41;;;;;;;4.40;1.73;;;18.00;96.30;;;;;;4948734;28;20262;-73
2022/09/12 16:31:10;;;;;;;6.23;1.60;;;17.90;96.30;;;;;;4948004;28;20581;-73
2022/09/12 16:33:37;;;;;;;2.53;1.57;;;17.80;96.30;;;;;;4963463;28;20205;-73
2022/09/12 16:36:06;;;;;;;2.00;1.80;;;17.70;96.30;;;;;;4957420;28;20430;-75
2022/09/12 16:38:40;;;;;;;3.10;1.57;;;17.60;96.30;;;;;;4954735;28;20635;-76
2022/09/12 16:41:06;;;;;;;2.20;1.90;;;17.50;96.30;;;;;;4952050;28;20480;-76
2022/09/12 16:43:34;;;;;;;3.17;1.73;;;17.30;96.30;;;;;;4960652;28;21129;-76
2022/09/12 16:46:08;;;;;;;2.87;2.20;;;17.20;96.30;;;;;;4955407;28;20610;-75
2022/09/12 16:48:34;;;;;;;2.53;1.47;;;17.10;96.30;;;;;;4936225;29;20822;-78
2022/09/12 16:51:06;;;;;;;4.37;3.00;;;17.00;96.30;;;;;;4937375;29;20518;-77
2022/09/12 16:53:36;;;;;;;4.37;3.13;;;16.90;96.30;;;;;;4942622;29;20665;-76
2022/09/12 16:56:02;;;;;;;2.67;2.47;;;16.80;96.30;;;;;;4940091;29;20423;-76
2022/09/12 16:58:31;;;;;;;3.13;1.90;;;16.70;96.30;;;;;;4939624;29;20426;-76
2022/09/12 17:01:07;;;;;;;4.83;1.90;;;16.70;96.30;;;;;;4936048;29;20439;-76
2022/09/12 17:03:34;;;;;;;2.40;2.20;;;16.60;96.30;;;;;;4935929;29;20438;-76
2022/09/12 17:06:09;;;;;;;2.20;2.00;;;16.50;96.30;;;;;;4936924;29;20481;-76
2022/09/12 17:08:37;;;;;;;3.50;1.83;;;16.50;96.30;;;;;;4944770;28;20416;-76